Time;durP1;ratioP1;P1;durP2;ratioP2;P2;SDS_P1;SDS_P2;PMS_P1;PMS_P2;Temp;Humidity;BMP_temperature;BMP_pressure;BME280_temperature;BME280_humidity;BME280_pressure;Samples;Min_cycle;Max_cycle;Signal;HPM_P1;HPM_P2
2024/01/13 00:01:03;;;;;;;5.95;2.65;;;;;;;;;;4981003;28;94422;-82
2024/01/13 00:03:29;;;;;;;6.88;2.45;;;;;;;;;;4981231;28;94493;-79
2024/01/13 00:05:56;;;;;;;6.20;2.33;;;;;;;;;;4982695;28;92519;-79
2024/01/13 00:08:22;;;;;;;6.90;2.80;;;;;;;;;;4981349;28;92416;-80
2024/01/13 00:11:02;;;;;;;6.10;2.60;;;;;;;;;;4987390;28;92657;-80
2024/01/13 00:13:28;;;;;;;5.13;2.22;;;;;;;;;;5002762;27;93234;-80
2024/01/13 00:15:55;;;;;;;6.10;2.53;;;;;;;;;;5000103;28;95356;-81
2024/01/13 00:18:21;;;;;;;6.35;2.33;;;;;;;;;;4983716;28;92391;-80
2024/01/13 00:21:04;;;;;;;5.47;2.45;;;;;;;;;;4982890;28;92877;-80
2024/01/13 00:23:31;;;;;;;4.78;2.08;;;;;;;;;;4980622;28;92793;-79
2024/01/13 00:25:57;;;;;;;6.57;2.60;;;;;;;;;;4980504;28;92569;-79
2024/01/13 00:28:24;;;;;;;6.78;2.40;;;;;;;;;;4978570;28;94464;-79
2024/01/13 00:31:02;;;;;;;4.72;2.20;;;;;;;;;;4984860;28;92667;-79
2024/01/13 00:33:29;;;;;;;5.90;2.40;;;;;;;;;;4981967;28;92788;-79
2024/01/13 00:35:56;;;;;;;4.78;2.22;;;;;;;;;;4967818;28;93194;-80
2024/01/13 00:38:23;;;;;;;6.03;2.30;;;;;;;;;;4967361;28;92145;-79
2024/01/13 00:41:01;;;;;;;7.22;2.30;;;;;;;;;;4980818;28;92297;-79
2024/01/13 00:43:27;;;;;;;4.65;2.30;;;;;;;;;;4981751;28;93037;-81
2024/01/13 00:45:54;;;;;;;8.25;2.22;;;;;;;;;;4980884;28;91781;-79
2024/01/13 00:48:21;;;;;;;8.00;2.42;;;;;;;;;;4962801;28;94056;-79
2024/01/13 00:51:00;;;;;;;7.85;2.17;;;;;;;;;;4981859;28;93075;-80
2024/01/13 00:53:27;;;;;;;8.60;2.72;;;;;;;;;;4981396;28;95187;-80
2024/01/13 00:55:54;;;;;;;7.07;2.13;;;;;;;;;;4979957;28;92678;-79
2024/01/13 00:58:20;;;;;;;6.72;2.67;;;;;;;;;;4980867;28;92365;-80
2024/01/13 01:01:05;;;;;;;7.00;2.20;;;;;;;;;;4980330;28;94863;-80
2024/01/13 01:03:32;;;;;;;5.63;2.10;;;;;;;;;;4978473;28;92390;-79
2024/01/13 01:05:58;;;;;;;6.05;2.40;;;;;;;;;;4978708;28;92718;-80
2024/01/13 01:08:26;;;;;;;5.38;2.13;;;;;;;;;;4979294;28;94801;-79
2024/01/13 01:11:05;;;;;;;5.68;2.08;;;;;;;;;;4984125;28;93864;-80
2024/01/13 01:13:31;;;;;;;4.85;2.10;;;;;;;;;;4990903;28;92313;-79
2024/01/13 01:15:58;;;;;;;4.18;1.90;;;;;;;;;;4982484;28;95241;-79
2024/01/13 01:18:24;;;;;;;4.35;2.00;;;;;;;;;;4978027;28;94817;-80
2024/01/13 01:21:08;;;;;;;4.38;2.13;;;;;;;;;;4981264;28;95033;-78
2024/01/13 01:23:35;;;;;;;3.88;1.80;;;;;;;;;;4979937;28;93296;-79
2024/01/13 01:26:02;;;;;;;6.07;2.15;;;;;;;;;;4980939;28;92462;-79
2024/01/13 01:28:29;;;;;;;6.57;2.30;;;;;;;;;;4979658;28;92776;-78
2024/01/13 01:31:01;;;;;;;6.57;1.92;;;;;;;;;;4979553;28;95899;-78
2024/01/13 01:33:28;;;;;;;8.73;2.20;;;;;;;;;;4961549;28;93512;-78
2024/01/13 01:35:55;;;;;;;5.45;1.98;;;;;;;;;;4963043;28;91730;-79
2024/01/13 01:38:22;;;;;;;5.90;1.85;;;;;;;;;;4967986;28;95737;-80
2024/01/13 01:41:06;;;;;;;4.30;1.90;;;;;;;;;;4980431;28;92439;-79
2024/01/13 01:43:32;;;;;;;3.20;1.67;;;;;;;;;;4978529;28;95140;-78
2024/01/13 01:45:59;;;;;;;5.78;1.85;;;;;;;;;;4979582;28;92442;-78
2024/01/13 01:48:33;;;;;;;5.57;2.10;;;;;;;;;;4978945;28;92805;-79
2024/01/13 01:51:07;;;;;;;3.70;1.80;;;;;;;;;;4979210;28;94937;-79
2024/01/13 01:53:37;;;;;;;3.95;1.60;;;;;;;;;;4979952;28;92481;-79
2024/01/13 01:56:06;;;;;;;3.78;1.70;;;;;;;;;;4979303;28;95011;-79
2024/01/13 01:58:33;;;;;;;4.32;1.60;;;;;;;;;;4977935;28;92608;-78
2024/01/13 02:01:02;;;;;;;7.13;1.77;;;;;;;;;;4984085;28;91455;-79
2024/01/13 02:03:29;;;;;;;2.85;1.50;;;;;;;;;;4979024;28;95527;-80
2024/01/13 02:05:58;;;;;;;3.83;1.83;;;;;;;;;;4980709;28;92142;-81
2024/01/13 02:08:25;;;;;;;6.15;1.80;;;;;;;;;;4978651;28;94935;-80
2024/01/13 02:11:04;;;;;;;3.28;1.52;;;;;;;;;;4983047;28;93042;-79
2024/01/13 02:13:31;;;;;;;3.33;1.67;;;;;;;;;;5000755;27;92417;-80
2024/01/13 02:15:58;;;;;;;3.75;1.85;;;;;;;;;;4999469;27;92672;-79
2024/01/13 02:18:24;;;;;;;3.45;1.63;;;;;;;;;;4981940;28;92816;-80
2024/01/13 02:21:04;;;;;;;4.20;1.55;;;;;;;;;;4980807;28;92663;-79
2024/01/13 02:23:31;;;;;;;3.70;1.70;;;;;;;;;;4982319;28;94916;-79
2024/01/13 02:25:58;;;;;;;3.17;1.42;;;;;;;;;;4979547;28;91658;-79
2024/01/13 02:28:24;;;;;;;5.60;1.63;;;;;;;;;;4962515;28;91991;-79
2024/01/13 02:31:08;;;;;;;5.38;1.70;;;;;;;;;;4978375;28;93057;-79
2024/01/13 02:33:35;;;;;;;4.60;1.70;;;;;;;;;;4978350;28;94723;-79
2024/01/13 02:36:01;;;;;;;3.33;1.40;;;;;;;;;;4968061;28;94740;-79
2024/01/13 02:38:28;;;;;;;4.22;1.55;;;;;;;;;;4953088;28;95402;-79
2024/01/13 02:41:04;;;;;;;3.75;1.70;;;;;;;;;;4981039;28;91955;-79
2024/01/13 02:43:32;;;;;;;2.83;1.52;;;;;;;;;;4969332;28;94590;-79
2024/01/13 02:45:59;;;;;;;3.45;1.60;;;;;;;;;;4982291;28;92345;-78
2024/01/13 02:48:27;;;;;;;3.75;1.70;;;;;;;;;;4964731;28;92590;-79
2024/01/13 02:51:05;;;;;;;4.65;1.50;;;;;;;;;;4982979;28;94535;-78
2024/01/13 02:53:32;;;;;;;3.40;1.40;;;;;;;;;;4982259;28;92555;-80
2024/01/13 02:55:59;;;;;;;3.67;1.60;;;;;;;;;;4983714;28;92696;-79
2024/01/13 02:58:25;;;;;;;3.00;1.15;;;;;;;;;;4979976;28;95561;-79
2024/01/13 03:01:07;;;;;;;3.28;1.50;;;;;;;;;;4963025;28;92551;-79
2024/01/13 03:03:34;;;;;;;3.45;1.40;;;;;;;;;;4964235;28;92393;-79
2024/01/13 03:06:03;;;;;;;3.85;1.48;;;;;;;;;;4953915;28;95733;-79
2024/01/13 03:08:30;;;;;;;2.58;1.40;;;;;;;;;;4961822;28;92742;-79
2024/01/13 03:11:06;;;;;;;3.72;1.60;;;;;;;;;;4971265;28;92733;-78
2024/01/13 03:13:33;;;;;;;3.45;1.45;;;;;;;;;;4991982;28;92349;-79
2024/01/13 03:15:59;;;;;;;2.58;1.40;;;;;;;;;;4981332;28;92478;-78
2024/01/13 03:18:26;;;;;;;3.78;1.55;;;;;;;;;;4964220;28;94397;-79
2024/01/13 03:21:05;;;;;;;3.92;1.60;;;;;;;;;;4983064;28;92413;-79
2024/01/13 03:23:32;;;;;;;3.88;1.50;;;;;;;;;;4981671;28;94656;-80
2024/01/13 03:25:59;;;;;;;4.35;1.60;;;;;;;;;;4981991;28;95076;-79
2024/01/13 03:28:25;;;;;;;3.17;1.70;;;;;;;;;;4984419;28;92534;-80
2024/01/13 03:31:05;;;;;;;3.20;1.42;;;;;;;;;;4981342;28;95499;-80
2024/01/13 03:33:32;;;;;;;2.80;1.45;;;;;;;;;;4982982;28;92046;-79
2024/01/13 03:35:59;;;;;;;4.72;1.55;;;;;;;;;;4969327;28;92789;-79
2024/01/13 03:38:27;;;;;;;4.55;1.75;;;;;;;;;;4967430;28;92705;-79
2024/01/13 03:41:06;;;;;;;4.60;1.85;;;;;;;;;;4981555;28;91703;-79
2024/01/13 03:43:33;;;;;;;5.20;1.80;;;;;;;;;;4981322;28;94108;-79
2024/01/13 03:46:00;;;;;;;3.72;1.65;;;;;;;;;;4981476;28;92696;-79
2024/01/13 03:48:26;;;;;;;4.50;1.75;;;;;;;;;;4978565;28;94991;-79
2024/01/13 03:50:53;;;;;;;5.57;1.88;;;;;;;;;;4977617;28;99314;-79
2024/01/13 03:53:20;;;;;;;5.03;1.88;;;;;;;;;;4980516;28;92836;-79
2024/01/13 03:55:47;;;;;;;3.60;1.60;;;;;;;;;;4982281;28;92418;-79
2024/01/13 03:58:14;;;;;;;4.57;1.98;;;;;;;;;;4982539;28;92661;-79
2024/01/13 04:00:41;;;;;;;4.50;1.88;;;;;;;;;;4980366;28;92161;-78
2024/01/13 04:03:08;;;;;;;6.80;2.03;;;;;;;;;;4980657;28;94656;-78
2024/01/13 04:05:35;;;;;;;4.90;1.90;;;;;;;;;;4981355;28;92018;-79
2024/01/13 04:08:01;;;;;;;5.13;2.15;;;;;;;;;;4982230;28;92477;-79
2024/01/13 04:10:28;;;;;;;5.25;2.00;;;;;;;;;;4979586;28;95126;-78
2024/01/13 04:12:59;;;;;;;3.85;1.90;;;;;;;;;;4982292;28;95665;-79
2024/01/13 04:15:26;;;;;;;6.97;1.90;;;;;;;;;;4980989;28;94743;-78
2024/01/13 04:17:53;;;;;;;3.90;1.90;;;;;;;;;;4981822;28;93283;-79
2024/01/13 04:20:20;;;;;;;4.43;1.65;;;;;;;;;;4981829;28;92365;-79
2024/01/13 04:22:47;;;;;;;4.25;1.80;;;;;;;;;;4981531;28;92684;-79
2024/01/13 04:25:14;;;;;;;4.18;1.85;;;;;;;;;;4961285;28;93829;-79
2024/01/13 04:27:41;;;;;;;4.95;2.13;;;;;;;;;;4960967;28;92156;-79
2024/01/13 04:30:07;;;;;;;4.55;1.80;;;;;;;;;;4962726;28;92778;-79
2024/01/13 04:32:34;;;;;;;5.85;2.10;;;;;;;;;;4960864;28;92641;-79
2024/01/13 04:35:01;;;;;;;3.35;1.80;;;;;;;;;;4970742;28;93313;-78
2024/01/13 04:37:27;;;;;;;4.25;1.52;;;;;;;;;;4978275;28;95274;-79
2024/01/13 04:39:54;;;;;;;4.30;1.92;;;;;;;;;;4972509;28;92625;-80
2024/01/13 04:42:20;;;;;;;3.65;1.77;;;;;;;;;;4981046;28;92495;-81
2024/01/13 04:44:47;;;;;;;3.25;1.65;;;;;;;;;;4979796;28;92981;-79
2024/01/13 04:47:14;;;;;;;4.65;1.77;;;;;;;;;;4980295;28;92531;-79
2024/01/13 04:49:40;;;;;;;7.68;2.05;;;;;;;;;;4981832;28;92467;-78
2024/01/13 04:52:07;;;;;;;3.55;1.83;;;;;;;;;;4980068;28;94416;-80
2024/01/13 04:54:33;;;;;;;7.72;1.90;;;;;;;;;;4984603;28;98982;-79
2024/01/13 04:57:00;;;;;;;5.85;1.83;;;;;;;;;;4963434;28;95489;-79
2024/01/13 04:59:27;;;;;;;5.93;1.80;;;;;;;;;;4981722;28;92696;-80
2024/01/13 05:01:53;;;;;;;7.20;1.80;;;;;;;;;;4980339;28;94752;-79
2024/01/13 05:04:20;;;;;;;5.38;1.88;;;;;;;;;;4980776;28;93653;-80
2024/01/13 05:06:47;;;;;;;5.10;1.80;;;;;;;;;;4979855;28;92101;-79
2024/01/13 05:09:14;;;;;;;4.20;2.00;;;;;;;;;;4981926;28;92230;-79
2024/01/13 05:11:41;;;;;;;4.03;1.77;;;;;;;;;;4988504;28;93091;-79
2024/01/13 05:14:07;;;;;;;6.22;1.90;;;;;;;;;;4986498;28;92782;-80
2024/01/13 05:16:34;;;;;;;3.72;1.60;;;;;;;;;;4982328;28;95141;-78
2024/01/13 05:19:01;;;;;;;4.43;1.55;;;;;;;;;;4981860;28;91538;-78
2024/01/13 05:21:27;;;;;;;5.45;1.77;;;;;;;;;;4980897;28;92521;-79
2024/01/13 05:23:54;;;;;;;3.65;1.50;;;;;;;;;;4981489;28;92742;-80
2024/01/13 05:26:20;;;;;;;5.00;1.60;;;;;;;;;;4978802;28;94401;-79
2024/01/13 05:28:47;;;;;;;4.65;1.50;;;;;;;;;;4980978;28;94846;-79
2024/01/13 05:31:14;;;;;;;5.28;1.70;;;;;;;;;;4979781;28;93094;-79
2024/01/13 05:33:41;;;;;;;4.25;1.48;;;;;;;;;;4980449;28;92441;-79
2024/01/13 05:36:08;;;;;;;3.90;1.85;;;;;;;;;;4980690;28;92553;-79
2024/01/13 05:38:34;;;;;;;4.95;1.75;;;;;;;;;;4983489;28;92858;-79
2024/01/13 05:41:01;;;;;;;3.85;1.77;;;;;;;;;;4959840;28;92865;-79
2024/01/13 05:43:28;;;;;;;4.85;1.80;;;;;;;;;;4976330;28;93736;-79
2024/01/13 05:45:54;;;;;;;3.63;1.70;;;;;;;;;;4960201;28;92392;-79
2024/01/13 05:48:21;;;;;;;4.18;1.80;;;;;;;;;;4978477;28;92865;-79
2024/01/13 05:50:47;;;;;;;3.60;1.42;;;;;;;;;;4978452;28;95291;-79
2024/01/13 05:53:14;;;;;;;4.55;1.92;;;;;;;;;;4963178;28;92093;-79
2024/01/13 05:55:42;;;;;;;4.78;1.80;;;;;;;;;;4979288;28;92266;-79
2024/01/13 05:58:09;;;;;;;3.92;1.73;;;;;;;;;;4979135;28;95459;-78
2024/01/13 06:00:35;;;;;;;3.63;1.67;;;;;;;;;;4983497;28;92303;-79
2024/01/13 06:03:02;;;;;;;4.68;1.80;;;;;;;;;;4978695;28;95491;-78
2024/01/13 06:05:31;;;;;;;4.13;1.70;;;;;;;;;;4980637;28;92223;-77
2024/01/13 06:07:57;;;;;;;3.13;1.60;;;;;;;;;;4978554;28;94866;-78
2024/01/13 06:10:26;;;;;;;4.28;1.65;;;;;;;;;;4979451;28;92972;-78
2024/01/13 06:12:54;;;;;;;3.72;1.48;;;;;;;;;;4980636;28;92581;-78
2024/01/13 06:15:20;;;;;;;3.58;1.65;;;;;;;;;;4998330;28;94836;-78
2024/01/13 06:17:47;;;;;;;7.00;1.70;;;;;;;;;;4978363;28;96396;-77
2024/01/13 06:20:14;;;;;;;6.80;1.80;;;;;;;;;;4980713;28;92080;-78
2024/01/13 06:22:40;;;;;;;5.60;1.50;;;;;;;;;;4980976;28;95346;-78
2024/01/13 06:25:07;;;;;;;6.25;1.77;;;;;;;;;;4978477;28;92289;-78
2024/01/13 06:27:33;;;;;;;3.72;1.52;;;;;;;;;;4978756;28;96429;-79
2024/01/13 06:30:00;;;;;;;3.47;1.55;;;;;;;;;;4978504;28;95444;-79
2024/01/13 06:32:27;;;;;;;3.60;1.75;;;;;;;;;;4978378;28;91735;-79
2024/01/13 06:34:53;;;;;;;4.10;1.70;;;;;;;;;;4973976;28;94005;-78
2024/01/13 06:37:22;;;;;;;4.03;1.55;;;;;;;;;;4958000;28;92695;-77
2024/01/13 06:39:49;;;;;;;2.70;1.60;;;;;;;;;;4977099;28;94868;-78
2024/01/13 06:42:15;;;;;;;3.33;1.60;;;;;;;;;;4965326;28;97296;-79
2024/01/13 06:44:42;;;;;;;3.90;1.88;;;;;;;;;;4978218;28;93726;-78
2024/01/13 06:47:10;;;;;;;3.40;1.50;;;;;;;;;;4978630;28;95330;-78
2024/01/13 06:49:36;;;;;;;4.13;1.70;;;;;;;;;;4978958;28;92841;-78
2024/01/13 06:52:04;;;;;;;3.67;1.52;;;;;;;;;;4979068;28;99574;-78
2024/01/13 06:54:30;;;;;;;2.70;1.45;;;;;;;;;;4979751;28;94257;-78
2024/01/13 06:56:57;;;;;;;3.35;1.60;;;;;;;;;;4978361;28;94386;-78
2024/01/13 06:59:23;;;;;;;3.47;1.70;;;;;;;;;;4979992;28;95459;-79
2024/01/13 07:01:50;;;;;;;3.95;1.80;;;;;;;;;;4979216;28;93366;-78
2024/01/13 07:04:17;;;;;;;4.47;1.70;;;;;;;;;;4980431;28;95407;-79
2024/01/13 07:06:44;;;;;;;3.35;1.50;;;;;;;;;;4978418;28;100452;-79
2024/01/13 07:09:11;;;;;;;3.63;1.50;;;;;;;;;;4978979;28;93310;-79
2024/01/13 07:11:37;;;;;;;4.28;1.77;;;;;;;;;;4985621;28;92040;-79
2024/01/13 07:14:05;;;;;;;4.40;1.70;;;;;;;;;;4979095;28;93367;-80
2024/01/13 07:16:32;;;;;;;4.18;1.88;;;;;;;;;;4979005;28;94357;-79
2024/01/13 07:18:59;;;;;;;5.05;1.58;;;;;;;;;;4979171;28;92035;-79
2024/01/13 07:21:26;;;;;;;6.05;1.60;;;;;;;;;;4981958;28;95022;-80
2024/01/13 07:23:53;;;;;;;6.25;1.90;;;;;;;;;;4983342;28;93278;-79
2024/01/13 07:26:20;;;;;;;6.20;1.95;;;;;;;;;;4985777;28;92143;-82
2024/01/13 07:28:46;;;;;;;6.82;1.80;;;;;;;;;;4979930;28;95548;-81
2024/01/13 07:31:13;;;;;;;6.70;1.60;;;;;;;;;;4981656;28;92654;-81
2024/01/13 07:33:40;;;;;;;2.97;1.60;;;;;;;;;;4983503;28;92020;-80
2024/01/13 07:36:07;;;;;;;3.75;1.50;;;;;;;;;;4965591;28;95638;-82
2024/01/13 07:38:34;;;;;;;4.07;1.35;;;;;;;;;;4970545;28;92477;-82
2024/01/13 07:41:01;;;;;;;3.80;1.45;;;;;;;;;;4981104;28;94932;-80
2024/01/13 07:43:27;;;;;;;4.80;1.55;;;;;;;;;;4980513;28;93399;-81
2024/01/13 07:45:54;;;;;;;2.90;1.23;;;;;;;;;;4982113;28;91812;-81
2024/01/13 07:48:20;;;;;;;4.38;1.30;;;;;;;;;;4983702;28;92350;-78
2024/01/13 07:50:47;;;;;;;2.42;1.25;;;;;;;;;;4980537;28;92429;-81
2024/01/13 07:53:14;;;;;;;1.98;1.30;;;;;;;;;;4981563;28;94497;-82
2024/01/13 07:55:40;;;;;;;2.53;1.23;;;;;;;;;;4980929;28;92750;-81
2024/01/13 07:58:07;;;;;;;2.78;1.35;;;;;;;;;;4980505;28;92250;-82
2024/01/13 08:00:33;;;;;;;3.47;1.35;;;;;;;;;;4962787;28;95512;-80
2024/01/13 08:03:00;;;;;;;5.13;1.50;;;;;;;;;;4981277;28;95444;-82
2024/01/13 08:05:27;;;;;;;2.85;1.30;;;;;;;;;;4982380;28;92226;-83
2024/01/13 08:07:57;;;;;;;3.70;1.20;;;;;;;;;;4982090;28;92692;-83
2024/01/13 08:10:24;;;;;;;2.55;1.25;;;;;;;;;;4967496;28;94180;-81
2024/01/13 08:12:50;;;;;;;3.05;1.10;;;;;;;;;;4999231;28;92369;-79
2024/01/13 08:15:17;;;;;;;3.13;1.23;;;;;;;;;;5000491;28;93013;-80
2024/01/13 08:17:44;;;;;;;2.20;1.20;;;;;;;;;;5000564;27;94882;-79
2024/01/13 08:20:13;;;;;;;2.90;1.30;;;;;;;;;;4983649;28;97034;-80
2024/01/13 08:22:40;;;;;;;3.30;1.30;;;;;;;;;;4976305;28;92962;-80
2024/01/13 08:25:07;;;;;;;3.10;1.27;;;;;;;;;;4979749;28;92258;-79
2024/01/13 08:27:34;;;;;;;2.55;1.20;;;;;;;;;;4980055;28;92952;-79
2024/01/13 08:30:00;;;;;;;3.10;1.20;;;;;;;;;;4980633;28;93155;-78
2024/01/13 08:32:27;;;;;;;1.83;1.00;;;;;;;;;;4981075;28;92481;-79
2024/01/13 08:34:54;;;;;;;2.55;1.15;;;;;;;;;;4974903;28;91663;-77
2024/01/13 08:37:21;;;;;;;1.88;1.08;;;;;;;;;;4973234;28;92205;-80
2024/01/13 08:39:47;;;;;;;2.38;1.17;;;;;;;;;;4981328;28;92020;-81
2024/01/13 08:42:14;;;;;;;1.77;1.00;;;;;;;;;;4980522;28;95127;-81
2024/01/13 08:44:41;;;;;;;1.90;1.10;;;;;;;;;;4979601;28;92247;-81
2024/01/13 08:47:09;;;;;;;3.50;1.10;;;;;;;;;;4964031;28;94628;-81
2024/01/13 08:49:39;;;;;;;2.25;1.08;;;;;;;;;;4964129;28;93637;-81
2024/01/13 08:52:08;;;;;;;2.90;1.10;;;;;;;;;;4983317;28;92090;-80
2024/01/13 08:54:36;;;;;;;1.55;1.10;;;;;;;;;;4979767;28;92735;-81
2024/01/13 08:57:03;;;;;;;3.00;1.10;;;;;;;;;;4981343;28;92140;-81
2024/01/13 08:59:30;;;;;;;1.88;1.10;;;;;;;;;;4982410;28;92470;-83
2024/01/13 09:01:57;;;;;;;;;;;;;;;;;;4980369;28;95466;-82
2024/01/13 09:04:23;;;;;;;1.75;0.90;;;;;;;;;;4981116;28;92500;-83
2024/01/13 09:06:50;;;;;;;2.05;0.90;;;;;;;;;;4979921;28;94739;-83
2024/01/13 09:09:17;;;;;;;1.17;0.90;;;;;;;;;;4979337;28;94959;-81
2024/01/13 09:11:45;;;;;;;1.17;0.95;;;;;;;;;;4989694;28;92311;-80
2024/01/13 09:14:12;;;;;;;1.95;0.90;;;;;;;;;;5003802;27;92335;-78
2024/01/13 09:16:41;;;;;;;2.15;1.10;;;;;;;;;;4997486;27;92343;-78
2024/01/13 09:19:10;;;;;;;1.67;1.00;;;;;;;;;;4990594;28;92448;-79
2024/01/13 09:21:39;;;;;;;3.22;0.90;;;;;;;;;;4979697;28;92681;-79
2024/01/13 09:24:11;;;;;;;1.92;0.90;;;;;;;;;;4982837;28;91328;-79
2024/01/13 09:26:43;;;;;;;8.45;1.40;;;;;;;;;;4979139;28;92618;-79
2024/01/13 09:29:14;;;;;;;1.70;1.00;;;;;;;;;;4979416;28;95130;-79
2024/01/13 09:31:41;;;;;;;3.13;1.00;;;;;;;;;;4976417;28;94577;-80
2024/01/13 09:34:08;;;;;;;3.03;1.10;;;;;;;;;;4980623;28;94807;-79
2024/01/13 09:36:37;;;;;;;2.25;0.90;;;;;;;;;;4998187;28;95652;-79
2024/01/13 09:39:06;;;;;;;2.40;0.98;;;;;;;;;;4978722;28;94459;-79
2024/01/13 09:41:33;;;;;;;1.38;1.00;;;;;;;;;;4979095;28;92698;-79
2024/01/13 09:44:24;;;;;;;2.90;1.10;;;;;;;;;;4979891;28;92294;-80
2024/01/13 09:46:53;;;;;;;2.05;0.95;;;;;;;;;;4978879;28;96755;-79
2024/01/13 09:49:23;;;;;;;1.92;1.10;;;;;;;;;;4979213;28;92279;-80
2024/01/13 09:51:50;;;;;;;2.30;1.00;;;;;;;;;;4980868;28;92356;-80
2024/01/13 09:54:20;;;;;;;4.93;1.20;;;;;;;;;;4980266;28;92402;-80
2024/01/13 09:56:47;;;;;;;2.35;1.10;;;;;;;;;;4976421;28;102200;-80
2024/01/13 09:59:14;;;;;;;2.17;1.00;;;;;;;;;;4982364;28;92351;-80
2024/01/13 10:01:44;;;;;;;1.50;0.90;;;;;;;;;;4978823;28;93722;-79
2024/01/13 10:04:11;;;;;;;1.95;1.10;;;;;;;;;;4979703;28;92160;-80
2024/01/13 10:06:39;;;;;;;1.30;1.00;;;;;;;;;;4977761;28;93211;-80
2024/01/13 10:09:07;;;;;;;1.50;1.00;;;;;;;;;;4979898;28;93074;-82
2024/01/13 10:11:54;;;;;;;2.33;1.30;;;;;;;;;;4990902;28;92215;-81
2024/01/13 10:14:22;;;;;;;2.45;1.20;;;;;;;;;;4998413;27;92377;-83
2024/01/13 10:16:49;;;;;;;2.35;1.08;;;;;;;;;;4979342;28;93660;-80
2024/01/13 10:19:15;;;;;;;5.28;1.10;;;;;;;;;;4980190;28;92385;-80
2024/01/13 10:21:42;;;;;;;2.95;1.20;;;;;;;;;;4981210;28;94900;-80
2024/01/13 10:24:10;;;;;;;2.20;1.10;;;;;;;;;;4980024;28;92306;-79
2024/01/13 10:26:37;;;;;;;4.07;1.20;;;;;;;;;;4961516;28;94927;-81
2024/01/13 10:29:03;;;;;;;2.70;1.40;;;;;;;;;;4979210;28;95879;-82
2024/01/13 10:31:32;;;;;;;2.90;1.17;;;;;;;;;;4980371;28;92497;-81
2024/01/13 10:34:13;;;;;;;2.70;1.30;;;;;;;;;;4979396;28;92700;-80
2024/01/13 10:36:40;;;;;;;3.38;1.40;;;;;;;;;;4977443;28;95106;-80
2024/01/13 10:39:07;;;;;;;2.60;1.40;;;;;;;;;;4978246;28;91740;-80
2024/01/13 10:41:35;;;;;;;5.53;1.40;;;;;;;;;;4979986;28;93371;-81
2024/01/13 10:44:02;;;;;;;;;;;;;;;;;;4982802;28;92692;-81
2024/01/13 10:46:30;;;;;;;3.15;1.30;;;;;;;;;;4977165;28;107464;-81
2024/01/13 10:49:00;;;;;;;3.55;1.52;;;;;;;;;;4977764;28;95438;-81
2024/01/13 10:51:34;;;;;;;4.78;1.52;;;;;;;;;;4978235;28;92487;-82
2024/01/13 10:54:02;;;;;;;2.55;1.40;;;;;;;;;;4979941;28;92790;-81
2024/01/13 10:56:29;;;;;;;3.53;1.60;;;;;;;;;;4980162;28;93205;-80
2024/01/13 10:58:57;;;;;;;3.92;1.52;;;;;;;;;;4982674;28;92367;-79
2024/01/13 11:01:24;;;;;;;3.67;1.70;;;;;;;;;;4981409;28;92463;-81
2024/01/13 11:04:00;;;;;;;4.13;1.70;;;;;;;;;;4986807;28;91944;-80
2024/01/13 11:06:28;;;;;;;3.70;1.80;;;;;;;;;;4980338;28;94454;-80
2024/01/13 11:08:54;;;;;;;4.00;1.80;;;;;;;;;;4981604;28;95552;-81
2024/01/13 11:11:27;;;;;;;6.75;1.90;;;;;;;;;;4976834;28;94863;-81
2024/01/13 11:14:11;;;;;;;5.78;1.92;;;;;;;;;;4983047;28;95070;-81
2024/01/13 11:16:39;;;;;;;7.75;2.40;;;;;;;;;;4981399;28;93087;-80
2024/01/13 11:19:06;;;;;;;4.85;1.83;;;;;;;;;;4981406;28;92693;-81
2024/01/13 11:21:33;;;;;;;5.15;1.95;;;;;;;;;;4982814;28;92465;-81
2024/01/13 11:24:12;;;;;;;5.80;2.15;;;;;;;;;;4980947;28;94655;-81
2024/01/13 11:26:40;;;;;;;5.32;2.05;;;;;;;;;;4983756;28;92218;-81
2024/01/13 11:29:25;;;;;;;6.07;2.30;;;;;;;;;;4983694;28;92127;-81
2024/01/13 11:31:56;;;;;;;5.68;2.22;;;;;;;;;;4980728;28;92078;-81
2024/01/13 11:34:23;;;;;;;6.75;2.50;;;;;;;;;;4978759;28;92742;-79
2024/01/13 11:36:51;;;;;;;6.22;2.58;;;;;;;;;;4944902;28;98110;-78
2024/01/13 11:39:19;;;;;;;5.38;2.15;;;;;;;;;;4974457;28;92184;-78
2024/01/13 11:41:45;;;;;;;6.35;2.42;;;;;;;;;;4976253;28;95030;-79
2024/01/13 11:44:23;;;;;;;6.57;2.67;;;;;;;;;;4980641;28;95205;-79
2024/01/13 11:46:57;;;;;;;6.50;2.92;;;;;;;;;;4982635;28;92658;-79
2024/01/13 11:49:30;;;;;;;6.18;3.05;;;;;;;;;;4985417;28;92444;-79
2024/01/13 11:51:58;;;;;;;6.97;2.80;;;;;;;;;;4981243;28;92379;-80
2024/01/13 11:54:25;;;;;;;5.60;2.80;;;;;;;;;;4982208;28;92355;-80
2024/01/13 11:56:52;;;;;;;;;;;;;;;;;;4980929;28;95423;-80
2024/01/13 11:59:19;;;;;;;8.00;3.60;;;;;;;;;;4981589;28;107035;-80
2024/01/13 12:01:46;;;;;;;7.05;3.53;;;;;;;;;;4979338;28;95048;-80
2024/01/13 12:04:14;;;;;;;7.22;3.95;;;;;;;;;;4981537;28;92981;-80
2024/01/13 12:06:45;;;;;;;6.88;3.47;;;;;;;;;;4962791;28;92476;-80
2024/01/13 12:09:12;;;;;;;7.53;3.67;;;;;;;;;;4980593;28;93186;-80
2024/01/13 12:11:39;;;;;;;;;;;;;;;;;;4992505;28;94499;-80
2024/01/13 12:14:06;;;;;;;8.38;4.07;;;;;;;;;;5001833;28;109506;-81
2024/01/13 12:16:33;;;;;;;7.90;3.63;;;;;;;;;;5001060;27;92598;-80
2024/01/13 12:19:00;;;;;;;7.85;3.60;;;;;;;;;;5002891;27;91360;-79
2024/01/13 12:21:27;;;;;;;8.38;3.80;;;;;;;;;;4996712;28;92203;-81
2024/01/13 12:24:08;;;;;;;7.13;3.60;;;;;;;;;;4980019;28;95340;-81
2024/01/13 12:26:35;;;;;;;8.57;3.67;;;;;;;;;;4976787;28;94797;-80
2024/01/13 12:29:03;;;;;;;7.88;3.88;;;;;;;;;;4963186;28;94857;-81
2024/01/13 12:31:29;;;;;;;6.38;3.80;;;;;;;;;;4998253;28;93448;-79
2024/01/13 12:34:14;;;;;;;7.95;4.15;;;;;;;;;;4979870;28;92585;-81
2024/01/13 12:36:42;;;;;;;7.00;3.67;;;;;;;;;;4956554;28;93183;-81
2024/01/13 12:39:18;;;;;;;7.15;3.45;;;;;;;;;;4977007;28;92517;-80
2024/01/13 12:41:45;;;;;;;7.43;3.72;;;;;;;;;;4963906;28;92246;-80
2024/01/13 12:44:25;;;;;;;7.20;3.55;;;;;;;;;;4980900;28;92250;-82
2024/01/13 12:46:58;;;;;;;6.85;3.35;;;;;;;;;;4982468;28;92234;-82
2024/01/13 12:49:26;;;;;;;6.70;3.40;;;;;;;;;;4967743;28;96517;-82
2024/01/13 12:51:54;;;;;;;6.63;3.30;;;;;;;;;;4962538;28;98647;-81
2024/01/13 12:54:21;;;;;;;7.80;3.45;;;;;;;;;;4981860;28;92647;-88
2024/01/13 12:56:49;;;;;;;8.40;4.10;;;;;;;;;;4964691;28;94923;-82
2024/01/13 12:59:16;;;;;;;7.85;4.00;;;;;;;;;;4963582;28;92261;-82
2024/01/13 13:01:43;;;;;;;7.90;4.00;;;;;;;;;;4965738;28;95200;-81
2024/01/13 13:04:10;;;;;;;8.40;3.85;;;;;;;;;;4979788;28;95752;-80
2024/01/13 13:06:38;;;;;;;8.50;4.05;;;;;;;;;;4979086;28;92435;-79
2024/01/13 13:09:09;;;;;;;9.00;4.03;;;;;;;;;;4982112;28;94755;-79
2024/01/13 13:11:41;;;;;;;7.45;4.13;;;;;;;;;;4990425;28;94120;-82
2024/01/13 13:14:08;;;;;;;6.95;3.78;;;;;;;;;;5000683;28;92723;-80
2024/01/13 13:16:35;;;;;;;7.63;3.83;;;;;;;;;;5002596;27;94545;-79
2024/01/13 13:19:03;;;;;;;10.38;3.88;;;;;;;;;;4967534;28;92475;-80
2024/01/13 13:21:30;;;;;;;8.93;4.22;;;;;;;;;;4962986;28;94537;-80
2024/01/13 13:23:57;;;;;;;9.27;4.28;;;;;;;;;;4981452;28;92717;-79
2024/01/13 13:26:24;;;;;;;;;;;;;;;;;;4980114;28;93685;-80
2024/01/13 13:28:50;;;;;;;7.25;3.80;;;;;;;;;;4983552;28;92455;-79
2024/01/13 13:31:17;;;;;;;9.52;3.90;;;;;;;;;;4963492;28;92978;-81
2024/01/13 13:33:43;;;;;;;8.15;3.78;;;;;;;;;;4969349;28;91750;-81
2024/01/13 13:36:10;;;;;;;9.85;5.15;;;;;;;;;;4964595;28;94324;-81
2024/01/13 13:38:37;;;;;;;8.10;4.15;;;;;;;;;;4974438;28;93001;-81
2024/01/13 13:41:04;;;;;;;10.60;4.18;;;;;;;;;;4979831;28;96704;-81
2024/01/13 13:43:32;;;;;;;9.70;4.28;;;;;;;;;;4981807;28;93322;-82
2024/01/13 13:45:59;;;;;;;8.05;4.50;;;;;;;;;;4980840;28;92166;-82
2024/01/13 13:48:33;;;;;;;8.60;4.15;;;;;;;;;;4979642;28;94810;-82
2024/01/13 13:50:59;;;;;;;;;;;;;;;;;;4982947;28;93093;-82
2024/01/13 13:53:26;;;;;;;8.00;4.45;;;;;;;;;;4982275;28;92207;-82
2024/01/13 13:55:53;;;;;;;9.18;4.53;;;;;;;;;;4981718;28;92652;-82
2024/01/13 13:58:20;;;;;;;8.23;4.05;;;;;;;;;;4981855;28;92021;-82
2024/01/13 14:00:46;;;;;;;8.88;4.65;;;;;;;;;;4984885;28;92472;-82
2024/01/13 14:03:17;;;;;;;9.15;4.95;;;;;;;;;;4980234;28;93469;-82
2024/01/13 14:05:43;;;;;;;9.27;4.60;;;;;;;;;;4979804;28;94644;-83
2024/01/13 14:08:10;;;;;;;9.35;4.82;;;;;;;;;;4979909;28;97436;-84
2024/01/13 14:10:37;;;;;;;8.93;4.85;;;;;;;;;;4979356;28;95310;-82
2024/01/13 14:13:04;;;;;;;9.25;4.90;;;;;;;;;;4976897;28;96141;-80
2024/01/13 14:15:31;;;;;;;8.13;4.38;;;;;;;;;;4977031;28;94571;-80
2024/01/13 14:17:57;;;;;;;8.70;4.63;;;;;;;;;;4981435;28;92745;-81
2024/01/13 14:20:25;;;;;;;8.77;4.70;;;;;;;;;;4979430;28;92784;-80
2024/01/13 14:22:52;;;;;;;10.38;5.10;;;;;;;;;;4963427;28;95018;-79
2024/01/13 14:25:19;;;;;;;10.18;6.00;;;;;;;;;;4960570;28;91974;-81
2024/01/13 14:27:46;;;;;;;13.93;8.25;;;;;;;;;;4961460;28;94933;-80
2024/01/13 14:30:13;;;;;;;17.33;9.35;;;;;;;;;;4980048;28;95505;-81
2024/01/13 14:32:40;;;;;;;18.75;9.55;;;;;;;;;;4984592;28;92210;-79
2024/01/13 14:35:07;;;;;;;16.98;8.25;;;;;;;;;;4977364;28;92696;-81
2024/01/13 14:37:46;;;;;;;15.63;8.00;;;;;;;;;;4968047;28;94897;-80
2024/01/13 14:40:13;;;;;;;17.38;8.15;;;;;;;;;;4984084;28;92220;-81
2024/01/13 14:42:41;;;;;;;14.63;7.60;;;;;;;;;;4964926;28;92667;-81
2024/01/13 14:45:08;;;;;;;14.73;7.38;;;;;;;;;;4985082;28;93239;-79
2024/01/13 14:47:48;;;;;;;14.02;7.07;;;;;;;;;;4982101;28;92451;-79
2024/01/13 14:50:17;;;;;;;12.07;6.30;;;;;;;;;;4965184;28;95153;-80